createdAt,value
2022-08-31T00:02:03.691Z,24.74
2022-08-31T00:04:31.814Z,24.75
2022-08-31T00:06:58.417Z,25.02
2022-08-31T00:09:25.034Z,24.83
2022-08-31T00:11:51.545Z,25.16
2022-08-31T00:14:18.210Z,24.85
2022-08-31T00:16:45.911Z,25.12
2022-08-31T00:19:15.130Z,25.08
2022-08-31T00:21:41.936Z,24.98
2022-08-31T00:24:11.522Z,24.81
2022-08-31T00:26:38.014Z,24.82
2022-08-31T00:29:05.135Z,24.32
2022-08-31T00:31:31.674Z,24.70
2022-08-31T00:33:58.617Z,24.51
2022-08-31T00:36:26.240Z,24.49
2022-08-31T00:38:54.442Z,24.01
2022-08-31T00:41:25.065Z,24.38
2022-08-31T00:43:57.089Z,24.32
2022-08-31T00:46:33.109Z,24.38
2022-08-31T00:49:22.091Z,24.27
2022-08-31T00:51:59.281Z,24.15
2022-08-31T00:54:34.598Z,23.77
2022-08-31T00:57:01.787Z,23.75
2022-08-31T00:59:28.847Z,23.69
2022-08-31T01:01:55.463Z,23.59
2022-08-31T01:04:22.427Z,23.50
2022-08-31T01:06:49.891Z,23.54
2022-08-31T01:09:17.036Z,23.43
2022-08-31T01:11:43.774Z,23.44
2022-08-31T01:14:11.000Z,23.40
2022-08-31T01:16:52.692Z,23.38
2022-08-31T01:19:42.144Z,23.49
2022-08-31T01:22:25.977Z,23.33
2022-08-31T01:24:54.843Z,23.41
2022-08-31T01:27:28.829Z,23.68
2022-08-31T01:29:59.657Z,23.93
2022-08-31T01:32:26.103Z,23.47
2022-08-31T01:34:52.746Z,24.23
2022-08-31T01:37:19.409Z,24.65
2022-08-31T01:39:56.519Z,24.78
2022-08-31T01:42:22.907Z,24.33
2022-08-31T01:44:59.635Z,24.56
2022-08-31T01:47:26.119Z,24.52
2022-08-31T01:49:52.533Z,24.13
2022-08-31T01:52:23.568Z,23.91
2022-08-31T01:54:54.213Z,23.65
2022-08-31T01:57:30.812Z,23.49
2022-08-31T02:00:04.409Z,23.36
2022-08-31T02:02:31.078Z,22.59
2022-08-31T02:04:58.967Z,22.50
2022-08-31T02:07:25.517Z,21.87
2022-08-31T02:09:53.546Z,21.70
2022-08-31T02:12:20.060Z,22.06
2022-08-31T02:14:46.501Z,21.78
2022-08-31T02:17:12.918Z,20.70
2022-08-31T02:19:39.340Z,21.38
2022-08-31T02:22:06.044Z,20.81
2022-08-31T02:24:32.670Z,21.07
2022-08-31T02:26:59.259Z,20.82
2022-08-31T02:29:25.803Z,20.92
2022-08-31T02:31:52.325Z,20.87
2022-08-31T02:34:19.309Z,20.88
2022-08-31T02:36:45.822Z,20.31
2022-08-31T02:39:13.681Z,20.70
2022-08-31T02:41:42.335Z,20.76
2022-08-31T02:44:08.803Z,20.58
2022-08-31T02:46:35.558Z,20.03
2022-08-31T02:49:02.631Z,20.03
2022-08-31T02:51:29.558Z,20.65
2022-08-31T02:53:56.078Z,20.75
2022-08-31T02:56:23.745Z,20.51
2022-08-31T02:58:54.795Z,20.83
2022-08-31T03:01:22.839Z,20.87
2022-08-31T03:03:50.000Z,20.80
2022-08-31T03:06:17.454Z,20.93
2022-08-31T03:08:43.942Z,20.44
2022-08-31T03:11:10.387Z,20.99
2022-08-31T03:13:38.101Z,20.98
2022-08-31T03:16:05.420Z,20.97
2022-08-31T03:18:32.863Z,20.77
2022-08-31T03:20:59.514Z,20.95
2022-08-31T03:23:26.291Z,20.89
2022-08-31T03:25:52.752Z,20.94
2022-08-31T03:28:19.330Z,20.99
2022-08-31T03:30:45.784Z,20.92
2022-08-31T03:33:12.693Z,20.78
2022-08-31T03:35:44.014Z,21.02
2022-08-31T03:38:12.731Z,20.62
2022-08-31T03:40:40.983Z,21.09
2022-08-31T03:43:11.628Z,21.12
2022-08-31T03:45:40.066Z,21.16
2022-08-31T03:48:11.986Z,21.20
2022-08-31T03:50:39.767Z,21.13
2022-08-31T03:53:07.486Z,20.72
2022-08-31T03:55:35.863Z,21.23
2022-08-31T03:58:02.331Z,20.98
2022-08-31T04:00:29.552Z,21.17
2022-08-31T04:02:59.618Z,20.44
2022-08-31T04:05:28.273Z,21.08
2022-08-31T04:07:55.761Z,21.05
2022-08-31T04:10:23.014Z,21.06
2022-08-31T04:12:50.388Z,21.17
2022-08-31T04:15:17.987Z,20.93
2022-08-31T04:17:47.593Z,20.69
2022-08-31T04:20:14.475Z,21.09
2022-08-31T04:22:41.058Z,21.04
2022-08-31T04:25:10.133Z,21.07
2022-08-31T04:27:38.124Z,20.87
2022-08-31T04:30:07.579Z,20.97
2022-08-31T04:32:35.196Z,20.91
2022-08-31T04:35:01.974Z,20.97
2022-08-31T04:37:29.499Z,20.36
2022-08-31T04:39:59.241Z,21.12
2022-08-31T04:42:26.194Z,20.89
2022-08-31T04:44:52.621Z,20.69
2022-08-31T04:47:20.344Z,21.02
2022-08-31T04:49:48.162Z,20.78
2022-08-31T04:52:14.660Z,21.13
2022-08-31T04:54:41.127Z,21.09
2022-08-31T04:57:07.568Z,21.14
2022-08-31T04:59:33.986Z,21.23
2022-08-31T05:02:00.493Z,21.09
2022-08-31T05:04:28.990Z,21.14
2022-08-31T05:06:55.487Z,21.13
2022-08-31T05:09:23.616Z,21.09
2022-08-31T05:11:52.379Z,21.09
2022-08-31T05:14:18.962Z,20.97
2022-08-31T05:16:45.863Z,20.32
2022-08-31T05:19:12.442Z,20.79
2022-08-31T05:21:41.353Z,20.55
2022-08-31T05:24:14.495Z,20.60
2022-08-31T05:26:44.434Z,20.68
2022-08-31T05:29:14.184Z,20.77
2022-08-31T05:31:41.624Z,20.83
2022-08-31T05:34:08.378Z,20.44
2022-08-31T05:36:35.438Z,20.94
2022-08-31T05:39:02.184Z,20.41
2022-08-31T05:41:29.878Z,20.90
2022-08-31T05:43:56.458Z,20.87
2022-08-31T05:46:23.502Z,20.94
2022-08-31T05:48:50.095Z,20.51
2022-08-31T05:51:18.156Z,21.01
2022-08-31T05:53:45.639Z,21.00
2022-08-31T05:56:15.806Z,20.83
2022-08-31T05:58:46.321Z,21.08
2022-08-31T06:01:30.409Z,21.08
2022-08-31T06:03:58.056Z,21.15
2022-08-31T06:06:24.859Z,21.08
2022-08-31T06:08:52.017Z,21.10
2022-08-31T06:11:22.133Z,20.98
2022-08-31T06:13:51.200Z,21.30
2022-08-31T06:16:18.281Z,21.06
2022-08-31T06:18:50.667Z,21.24
2022-08-31T06:21:33.391Z,21.29
2022-08-31T06:24:02.041Z,21.40
2022-08-31T06:26:30.378Z,21.28
2022-08-31T06:29:00.138Z,21.23
2022-08-31T06:31:31.009Z,21.15
2022-08-31T06:33:58.069Z,21.31
2022-08-31T06:36:26.788Z,21.50
2022-08-31T06:38:56.129Z,21.56
2022-08-31T06:41:27.118Z,21.58
2022-08-31T06:43:53.969Z,21.62
2022-08-31T06:46:21.745Z,21.34
2022-08-31T06:48:50.685Z,21.32
2022-08-31T06:51:17.934Z,21.09
2022-08-31T06:53:44.491Z,21.59
2022-08-31T06:56:20.792Z,21.71
2022-08-31T06:58:53.616Z,21.80
2022-08-31T07:01:32.584Z,21.71
2022-08-31T07:04:07.746Z,21.62
2022-08-31T07:06:37.958Z,21.71
2022-08-31T07:09:06.800Z,21.85
2022-08-31T07:11:44.491Z,21.74
2022-08-31T07:14:14.272Z,22.04
2022-08-31T07:16:42.250Z,21.45
2022-08-31T07:19:09.237Z,21.87
2022-08-31T07:21:41.342Z,22.02
2022-08-31T07:24:08.913Z,22.15
2022-08-31T07:26:40.027Z,22.24
2022-08-31T07:29:07.450Z,22.25
2022-08-31T07:31:44.772Z,22.29
2022-08-31T07:34:12.942Z,22.26
2022-08-31T07:36:58.902Z,22.31
2022-08-31T07:39:45.647Z,22.26
2022-08-31T07:42:16.007Z,22.32
2022-08-31T07:44:52.948Z,22.17
2022-08-31T07:47:20.533Z,22.27
2022-08-31T07:49:52.308Z,22.19
2022-08-31T07:52:30.078Z,21.76
2022-08-31T07:55:07.883Z,21.23
2022-08-31T07:57:44.226Z,22.10
2022-08-31T08:00:40.010Z,22.10
2022-08-31T08:03:13.126Z,21.94
2022-08-31T08:05:41.628Z,22.46
2022-08-31T08:08:13.871Z,22.39
2022-08-31T08:10:46.709Z,22.38
2022-08-31T08:13:20.111Z,22.25
2022-08-31T08:15:48.021Z,21.74
2022-08-31T08:18:14.631Z,22.25
2022-08-31T08:20:41.306Z,22.10
2022-08-31T08:23:14.044Z,22.46
2022-08-31T08:25:43.528Z,22.52
2022-08-31T08:28:37.964Z,21.35
2022-08-31T08:31:04.687Z,22.45
2022-08-31T08:33:33.512Z,22.63
2022-08-31T08:36:03.514Z,22.30
2022-08-31T08:38:31.486Z,22.56
2022-08-31T08:41:04.957Z,22.54
2022-08-31T08:43:34.951Z,22.53
2022-08-31T08:46:19.799Z,22.44
2022-08-31T08:48:55.505Z,22.68
2022-08-31T08:51:29.315Z,22.68
2022-08-31T08:54:02.976Z,22.04
2022-08-31T08:56:33.791Z,22.90
2022-08-31T08:59:00.796Z,23.10
2022-08-31T09:01:29.230Z,23.29
2022-08-31T09:04:17.150Z,23.52
2022-08-31T09:07:12.011Z,23.69
2022-08-31T09:10:00.781Z,23.45
2022-08-31T09:12:33.820Z,23.81
2022-08-31T09:15:36.193Z,23.99
2022-08-31T09:18:33.498Z,24.12
2022-08-31T09:21:06.292Z,24.08
2022-08-31T09:23:44.215Z,24.21
2022-08-31T09:26:16.151Z,24.41
2022-08-31T09:28:47.109Z,24.67
2022-08-31T09:31:37.404Z,24.84
2022-08-31T09:34:12.446Z,24.94
2022-08-31T09:36:43.400Z,25.03
2022-08-31T09:39:34.509Z,25.12
2022-08-31T09:42:14.811Z,25.09
2022-08-31T09:44:42.839Z,25.35
2022-08-31T09:47:43.658Z,25.52
2022-08-31T09:50:11.243Z,25.42
2022-08-31T09:52:58.484Z,25.71
2022-08-31T09:55:27.937Z,25.63
2022-08-31T09:57:55.993Z,25.96
2022-08-31T10:00:36.593Z,26.14
2022-08-31T10:03:25.952Z,26.09
2022-08-31T10:05:54.538Z,26.18
2022-08-31T10:08:46.180Z,26.34
2022-08-31T10:11:17.933Z,26.35
2022-08-31T10:13:57.044Z,26.49
2022-08-31T10:16:27.252Z,26.59
2022-08-31T10:19:06.228Z,26.66
2022-08-31T10:21:32.687Z,26.80
2022-08-31T10:24:28.243Z,26.85
2022-08-31T10:27:31.423Z,26.90
2022-08-31T10:30:11.441Z,27.01
2022-08-31T10:32:53.263Z,27.20
2022-08-31T10:35:26.393Z,27.16
2022-08-31T10:37:58.586Z,27.40
2022-08-31T10:40:35.060Z,27.41
2022-08-31T10:43:11.773Z,27.38
2022-08-31T10:45:43.102Z,27.66
2022-08-31T10:48:12.759Z,27.44
2022-08-31T10:51:14.180Z,28.06
2022-08-31T10:54:07.161Z,28.18
2022-08-31T10:57:05.459Z,28.06
2022-08-31T10:59:45.934Z,28.20
2022-08-31T11:02:28.158Z,28.27
2022-08-31T11:05:26.039Z,28.33
2022-08-31T11:08:01.680Z,28.48
2022-08-31T11:10:55.153Z,28.39
2022-08-31T11:13:31.216Z,28.61
2022-08-31T11:16:19.772Z,28.85
2022-08-31T11:19:12.637Z,29.04
2022-08-31T11:22:02.917Z,29.06
2022-08-31T11:24:56.658Z,29.14
2022-08-31T11:27:26.999Z,29.20
2022-08-31T11:30:02.624Z,29.29
2022-08-31T11:32:46.601Z,28.85
2022-08-31T11:35:15.525Z,29.10
2022-08-31T11:37:55.570Z,29.06
2022-08-31T11:40:44.008Z,29.16
2022-08-31T11:43:33.624Z,29.12
2022-08-31T11:46:26.951Z,29.32
2022-08-31T11:48:53.905Z,29.58
2022-08-31T11:51:40.990Z,29.71
2022-08-31T11:54:41.498Z,29.90
2022-08-31T11:57:15.723Z,29.83
2022-08-31T11:59:45.879Z,30.06
2022-08-31T12:02:21.770Z,29.96
2022-08-31T12:05:03.058Z,29.35
2022-08-31T12:07:36.435Z,29.88
2022-08-31T12:10:15.701Z,29.92
2022-08-31T12:13:09.528Z,29.84
2022-08-31T12:16:01.943Z,29.66
2022-08-31T12:18:38.461Z,29.88
2022-08-31T12:21:31.064Z,30.04
2022-08-31T12:24:06.258Z,30.20
2022-08-31T12:27:00.447Z,30.20
2022-08-31T12:29:35.466Z,30.15
2022-08-31T12:32:21.520Z,29.89
2022-08-31T12:35:00.345Z,29.89
2022-08-31T12:37:36.026Z,29.96
2022-08-31T12:40:19.901Z,30.13
2022-08-31T12:42:55.100Z,30.03
2022-08-31T12:45:49.441Z,30.13
2022-08-31T12:48:27.027Z,30.24
2022-08-31T12:51:13.163Z,30.26
2022-08-31T12:53:58.194Z,30.39
2022-08-31T12:56:36.718Z,30.56
2022-08-31T12:59:12.238Z,30.57
2022-08-31T13:01:46.300Z,30.22
2022-08-31T13:04:16.036Z,30.15
2022-08-31T13:06:45.064Z,30.30
2022-08-31T13:09:33.077Z,30.45
2022-08-31T13:12:00.825Z,30.39
2022-08-31T13:14:40.058Z,30.48
2022-08-31T13:17:29.358Z,30.36
2022-08-31T13:19:59.254Z,30.30
2022-08-31T13:22:31.449Z,30.27
2022-08-31T13:25:13.322Z,30.41
2022-08-31T13:27:51.264Z,30.40
2022-08-31T13:30:21.190Z,30.47
2022-08-31T13:32:54.629Z,30.40
2022-08-31T13:35:26.026Z,30.30
2022-08-31T13:38:05.749Z,30.34
2022-08-31T13:40:37.390Z,30.53
2022-08-31T13:43:07.422Z,30.30
2022-08-31T13:45:40.002Z,30.23
2022-08-31T13:48:14.338Z,30.41
2022-08-31T13:50:53.392Z,30.62
2022-08-31T13:53:43.075Z,30.78
2022-08-31T13:56:52.474Z,30.95
2022-08-31T13:59:32.901Z,30.95
2022-08-31T14:02:19.442Z,30.77
2022-08-31T14:04:57.436Z,30.78
2022-08-31T14:07:32.861Z,30.72
2022-08-31T14:10:07.933Z,30.61
2022-08-31T14:12:46.042Z,30.28
2022-08-31T14:15:17.383Z,30.48
2022-08-31T14:21:20.974Z,30.01
2022-08-31T14:24:03.223Z,30.29
2022-08-31T14:26:33.377Z,30.65
2022-08-31T14:29:10.003Z,30.67
2022-08-31T14:31:52.300Z,30.66
2022-08-31T14:34:25.264Z,30.90
2022-08-31T14:37:06.402Z,30.91
2022-08-31T14:39:38.784Z,30.95
2022-08-31T14:42:18.543Z,30.59
2022-08-31T14:44:53.649Z,30.52
2022-08-31T14:47:24.214Z,30.51
2022-08-31T14:49:51.622Z,29.95
2022-08-31T14:52:18.580Z,30.28
2022-08-31T14:54:46.044Z,30.24
2022-08-31T14:57:17.678Z,30.32
2022-08-31T14:59:46.704Z,30.33
2022-08-31T15:02:16.429Z,30.30
2022-08-31T15:04:45.529Z,30.43
2022-08-31T15:07:13.936Z,30.71
2022-08-31T15:09:42.223Z,30.72
2022-08-31T15:12:14.683Z,31.04
2022-08-31T15:14:43.084Z,31.03
2022-08-31T15:17:11.683Z,30.91
2022-08-31T15:19:46.038Z,31.06
2022-08-31T15:22:12.568Z,31.28
2022-08-31T15:24:46.376Z,31.04
2022-08-31T15:27:15.138Z,31.20
2022-08-31T15:29:43.428Z,31.19
2022-08-31T15:32:10.273Z,30.87
2022-08-31T15:34:38.195Z,30.91
2022-08-31T15:37:07.314Z,31.00
2022-08-31T15:39:48.796Z,31.22
2022-08-31T15:42:20.504Z,30.46
2022-08-31T15:44:56.015Z,31.11
2022-08-31T15:47:47.900Z,31.06
2022-08-31T15:50:19.281Z,31.17
2022-08-31T15:52:51.586Z,30.77
2022-08-31T15:55:23.336Z,30.73
2022-08-31T15:57:54.457Z,30.45
2022-08-31T16:00:26.068Z,30.45
2022-08-31T16:02:57.631Z,30.27
2022-08-31T16:05:28.303Z,30.76
2022-08-31T16:07:57.277Z,30.94
2022-08-31T16:10:24.526Z,30.79
2022-08-31T16:12:54.781Z,30.90
2022-08-31T16:15:24.648Z,31.07
2022-08-31T16:17:54.033Z,31.02
2022-08-31T16:20:20.742Z,31.01
2022-08-31T16:22:48.349Z,31.03
2022-08-31T16:25:16.311Z,30.87
2022-08-31T16:27:43.384Z,31.01
2022-08-31T16:30:11.833Z,31.01
2022-08-31T16:32:38.329Z,30.82
2022-08-31T16:35:05.672Z,30.79
2022-08-31T16:37:33.181Z,30.61
2022-08-31T16:40:00.129Z,30.60
2022-08-31T16:42:26.831Z,30.04
2022-08-31T16:44:53.363Z,29.86
2022-08-31T16:47:21.496Z,30.41
2022-08-31T16:49:48.378Z,30.34
2022-08-31T16:52:21.411Z,30.11
2022-08-31T16:54:51.004Z,29.88
2022-08-31T16:57:21.131Z,29.99
2022-08-31T16:59:48.718Z,29.93
2022-08-31T17:02:16.564Z,29.92
2022-08-31T17:04:53.398Z,29.94
2022-08-31T17:07:22.116Z,29.68
2022-08-31T17:09:49.027Z,29.68
2022-08-31T17:12:19.373Z,29.73
2022-08-31T17:14:48.340Z,29.19
2022-08-31T17:17:19.030Z,29.25
2022-08-31T17:19:46.842Z,29.50
2022-08-31T17:22:23.300Z,29.30
2022-08-31T17:24:56.371Z,29.50
2022-08-31T17:27:25.279Z,28.90
2022-08-31T17:29:55.700Z,29.03
2022-08-31T17:32:27.832Z,28.99
2022-08-31T17:34:55.686Z,28.97
2022-08-31T17:37:30.346Z,28.80
2022-08-31T17:39:58.947Z,29.17
2022-08-31T17:42:27.169Z,28.64
2022-08-31T17:44:55.513Z,28.40
2022-08-31T17:47:23.887Z,28.46
2022-08-31T17:49:52.472Z,28.66
2022-08-31T17:52:20.792Z,28.65
2022-08-31T17:54:48.443Z,28.55
2022-08-31T17:57:17.129Z,29.02
2022-08-31T17:59:49.253Z,28.43
2022-08-31T18:02:22.736Z,28.56
2022-08-31T18:04:49.353Z,28.69
2022-08-31T18:07:16.229Z,28.48
2022-08-31T18:09:45.516Z,28.68
2022-08-31T18:12:14.425Z,28.29
2022-08-31T18:14:41.607Z,28.46
2022-08-31T18:17:11.256Z,28.56
2022-08-31T18:19:38.285Z,28.26
2022-08-31T18:22:05.185Z,28.68
2022-08-31T18:24:35.348Z,28.59
2022-08-31T18:27:04.101Z,28.07
2022-08-31T18:29:33.981Z,27.95
2022-08-31T18:32:09.862Z,28.08
2022-08-31T18:34:40.107Z,27.98
2022-08-31T18:37:07.816Z,28.37
2022-08-31T18:39:53.142Z,27.93
2022-08-31T18:42:39.447Z,28.28
2022-08-31T18:45:18.163Z,27.91
2022-08-31T18:48:07.217Z,27.76
2022-08-31T18:50:36.980Z,27.96
2022-08-31T18:53:08.192Z,27.60
2022-08-31T18:55:41.472Z,27.70
2022-08-31T18:58:07.999Z,27.77
2022-08-31T19:00:34.849Z,27.89
2022-08-31T19:03:02.510Z,27.74
2022-08-31T19:05:29.745Z,27.91
2022-08-31T19:07:58.137Z,28.14
2022-08-31T19:10:25.657Z,27.47
2022-08-31T19:12:55.302Z,27.57
2022-08-31T19:15:25.586Z,27.78
2022-08-31T19:18:01.600Z,27.49
2022-08-31T19:20:29.328Z,27.37
2022-08-31T19:22:57.309Z,27.45
2022-08-31T19:25:27.068Z,27.43
2022-08-31T19:27:54.809Z,27.76
2022-08-31T19:30:27.284Z,27.58
2022-08-31T19:32:58.117Z,27.44
2022-08-31T19:35:27.376Z,27.30
2022-08-31T19:37:56.369Z,27.08
2022-08-31T19:40:35.552Z,27.38
2022-08-31T19:43:43.006Z,27.24
2022-08-31T19:45:49.019Z,27.70
2022-08-31T19:48:17.207Z,26.96
2022-08-31T19:50:44.152Z,26.90
2022-08-31T19:53:12.093Z,26.91
2022-08-31T19:55:50.085Z,26.70
2022-08-31T19:58:19.242Z,26.82
2022-08-31T20:00:48.245Z,26.69
2022-08-31T20:03:15.747Z,26.83
2022-08-31T20:05:43.502Z,26.81
2022-08-31T20:08:12.829Z,26.71
2022-08-31T20:10:44.567Z,26.93
2022-08-31T20:13:12.677Z,26.67
2022-08-31T20:15:44.455Z,26.50
2022-08-31T20:18:12.913Z,26.60
2022-08-31T20:20:45.889Z,27.00
2022-08-31T20:23:16.727Z,26.39
2022-08-31T20:25:45.487Z,26.88
2022-08-31T20:28:12.867Z,26.22
2022-08-31T20:30:41.233Z,26.58
2022-08-31T20:33:08.198Z,26.31
2022-08-31T20:35:38.675Z,26.85
2022-08-31T20:38:06.134Z,26.21
2022-08-31T20:40:33.403Z,26.19
2022-08-31T20:43:01.438Z,26.65
2022-08-31T20:45:28.006Z,25.91
2022-08-31T20:48:13.009Z,26.05
2022-08-31T20:50:42.707Z,26.32
2022-08-31T20:53:18.535Z,26.55
2022-08-31T20:56:07.944Z,25.95
2022-08-31T20:58:34.368Z,25.99
2022-08-31T21:01:07.309Z,26.01
2022-08-31T21:03:34.671Z,26.02
2022-08-31T21:06:02.913Z,26.05
2022-08-31T21:08:29.360Z,26.32
2022-08-31T21:10:55.791Z,25.66
2022-08-31T21:13:22.192Z,25.84
2022-08-31T21:15:48.645Z,25.79
2022-08-31T21:18:18.929Z,25.78
2022-08-31T21:20:46.226Z,25.65
2022-08-31T21:23:13.371Z,25.47
2022-08-31T21:25:45.628Z,25.51
2022-08-31T21:28:15.557Z,25.60
2022-08-31T21:30:42.060Z,25.56
2022-08-31T21:33:08.499Z,25.67
2022-08-31T21:35:35.705Z,25.46
2022-08-31T21:38:03.156Z,25.67
2022-08-31T21:40:31.012Z,25.68
2022-08-31T21:42:58.322Z,25.08
2022-08-31T21:45:25.207Z,25.84
2022-08-31T21:47:51.635Z,25.23
2022-08-31T21:50:18.186Z,25.15
2022-08-31T21:52:44.575Z,24.99
2022-08-31T21:55:13.561Z,25.16
2022-08-31T21:57:40.771Z,24.98
2022-08-31T22:00:13.675Z,25.01
2022-08-31T22:02:46.683Z,25.09
2022-08-31T22:05:13.871Z,24.93
2022-08-31T22:07:40.652Z,25.62
2022-08-31T22:10:07.614Z,24.97
2022-08-31T22:12:34.135Z,25.51
2022-08-31T22:15:05.213Z,24.99
2022-08-31T22:17:48.527Z,24.85
2022-08-31T22:20:19.881Z,24.94
2022-08-31T22:22:46.986Z,24.80
2022-08-31T22:25:13.715Z,24.70
2022-08-31T22:27:40.218Z,24.88
2022-08-31T22:30:07.374Z,25.09
2022-08-31T22:32:33.994Z,24.64
2022-08-31T22:35:00.598Z,24.50
2022-08-31T22:37:27.016Z,24.99
2022-08-31T22:39:55.183Z,24.50
2022-08-31T22:42:22.310Z,24.41
2022-08-31T22:44:48.700Z,24.37
2022-08-31T22:47:15.162Z,24.27
2022-08-31T22:49:41.549Z,24.94
2022-08-31T22:52:08.018Z,24.17
2022-08-31T22:54:35.195Z,24.42
2022-08-31T22:57:01.773Z,24.23
2022-08-31T22:59:30.503Z,24.80
2022-08-31T23:02:03.842Z,24.73
2022-08-31T23:04:33.190Z,24.30
2022-08-31T23:07:01.309Z,24.15
2022-08-31T23:09:30.882Z,24.23
2022-08-31T23:12:00.139Z,24.01
2022-08-31T23:14:27.622Z,24.23
2022-08-31T23:16:58.610Z,24.01
2022-08-31T23:19:30.807Z,24.58
2022-08-31T23:21:58.189Z,23.99
2022-08-31T23:24:28.563Z,24.49
2022-08-31T23:27:00.448Z,24.02
2022-08-31T23:29:30.933Z,23.66
2022-08-31T23:31:58.247Z,23.78
2022-08-31T23:34:24.736Z,23.75
2022-08-31T23:36:53.203Z,24.10
2022-08-31T23:39:23.431Z,23.75
2022-08-31T23:41:50.499Z,23.70
2022-08-31T23:44:20.417Z,23.38
2022-08-31T23:46:46.925Z,23.99
2022-08-31T23:49:16.860Z,23.52
2022-08-31T23:51:43.661Z,23.31
2022-08-31T23:54:12.393Z,23.26
2022-08-31T23:56:41.873Z,23.87
2022-08-31T23:59:11.847Z,23.15
